createdAt,value
2023-04-15T07:34:59.081Z,32.43
2023-04-15T07:35:10.385Z,32.25
2023-04-15T07:35:21.992Z,32.02
2023-04-15T07:35:33.391Z,31.96
2023-04-15T07:35:44.950Z,31.93
2023-04-15T07:35:56.274Z,31.90
2023-04-15T07:36:07.873Z,31.87
2023-04-15T07:36:19.196Z,31.86
2023-04-15T07:36:30.813Z,31.85
2023-04-15T07:36:42.148Z,31.84
2023-04-15T07:36:53.739Z,31.84
2023-04-15T07:37:05.080Z,31.84
2023-04-15T07:37:16.677Z,31.79
2023-04-15T07:37:28.052Z,31.80
2023-04-15T07:37:39.636Z,31.81
2023-04-15T07:37:50.952Z,31.79
2023-04-15T07:38:02.529Z,31.78
2023-04-15T07:38:13.904Z,31.78
2023-04-15T07:38:25.492Z,31.77
2023-04-15T07:38:36.846Z,31.76
2023-04-15T07:38:48.436Z,31.76
2023-04-15T07:39:00.001Z,31.75
2023-04-15T07:39:11.776Z,31.76
2023-04-15T07:39:23.096Z,31.75
2023-04-15T07:39:34.764Z,31.76
2023-04-15T07:39:46.110Z,31.75
2023-04-15T07:39:57.734Z,31.76
2023-04-15T07:40:09.052Z,31.76
2023-04-15T07:40:20.694Z,31.75
2023-04-15T07:40:32.033Z,31.75
2023-04-15T07:40:43.679Z,31.75
2023-04-15T07:40:55.005Z,31.71
2023-04-15T07:41:06.611Z,31.73
2023-04-15T07:41:17.939Z,31.75
2023-04-15T07:41:29.526Z,31.72
2023-04-15T07:41:40.868Z,31.74
2023-04-15T07:41:52.465Z,31.72
2023-04-15T07:42:03.782Z,31.75
2023-04-15T07:42:15.363Z,31.74
2023-04-15T07:42:26.691Z,31.71
2023-04-15T07:42:40.023Z,31.74
2023-04-15T07:42:48.319Z,31.73
2023-04-15T07:42:59.652Z,31.75
2023-04-15T07:43:11.253Z,31.72
2023-04-15T07:43:22.591Z,31.71
2023-04-15T07:43:34.172Z,31.74
2023-04-15T07:43:45.481Z,31.75
2023-04-15T07:43:57.056Z,31.72
2023-04-15T07:44:08.381Z,31.75
2023-04-15T07:44:19.969Z,31.73
2023-04-15T07:44:31.314Z,31.73
2023-04-15T07:44:42.925Z,31.73
2023-04-15T07:44:54.240Z,31.72
2023-04-15T07:45:05.816Z,31.72
2023-04-15T07:45:17.172Z,31.71
2023-04-15T07:45:28.816Z,31.74
2023-04-15T07:45:40.139Z,31.73
2023-04-15T07:45:51.750Z,31.74
2023-04-15T07:46:03.136Z,31.73
2023-04-15T07:46:14.785Z,31.73
2023-04-15T07:46:26.175Z,31.74
2023-04-15T07:46:37.845Z,31.71
2023-04-15T07:46:49.147Z,31.72
2023-04-15T07:47:00.725Z,31.72
2023-04-15T07:47:12.049Z,31.72
2023-04-15T07:47:23.681Z,31.71
2023-04-15T07:47:35.108Z,31.71
2023-04-15T07:47:46.722Z,31.73
2023-04-15T07:47:58.107Z,31.72
2023-04-15T07:48:09.652Z,31.73
2023-04-15T07:48:20.987Z,31.73
2023-04-15T07:48:32.560Z,31.73
2023-04-15T07:48:43.884Z,31.73
2023-04-15T07:48:55.477Z,31.72
2023-04-15T07:49:06.800Z,31.71
2023-04-15T07:49:18.395Z,31.72
2023-04-15T07:49:29.702Z,31.72
2023-04-15T07:49:41.280Z,31.69
2023-04-15T07:49:52.600Z,31.72
2023-04-15T07:50:04.213Z,31.71
2023-04-15T07:50:15.557Z,31.75
2023-04-15T07:50:27.150Z,31.70
2023-04-15T07:50:38.543Z,31.72
2023-04-15T07:50:50.108Z,31.73
2023-04-15T07:51:01.476Z,31.72
2023-04-15T07:51:13.084Z,31.72
2023-04-15T07:51:24.438Z,31.73
2023-04-15T07:51:36.029Z,31.73
2023-04-15T07:51:47.353Z,31.73
2023-04-15T07:51:58.921Z,31.71
2023-04-15T07:52:10.252Z,31.72
2023-04-15T07:52:21.844Z,31.72
2023-04-15T07:52:33.196Z,31.71
2023-04-15T07:52:44.796Z,31.72
2023-04-15T07:52:56.152Z,31.72
2023-04-15T07:53:07.724Z,31.69
2023-04-15T07:53:19.047Z,31.71
2023-04-15T07:53:30.638Z,31.72
2023-04-15T07:53:41.998Z,31.72
2023-04-15T07:53:53.602Z,31.73
2023-04-15T07:54:04.934Z,31.71
2023-04-15T07:54:16.545Z,31.72
2023-04-15T07:54:27.892Z,31.72
2023-04-15T07:54:39.520Z,31.71
2023-04-15T07:54:50.854Z,31.71
2023-04-15T07:55:02.482Z,31.71
2023-04-15T07:55:13.819Z,31.72
2023-04-15T07:55:26.163Z,31.71
2023-04-15T07:55:36.393Z,31.70
2023-04-15T07:55:48.030Z,31.70
2023-04-15T07:55:59.364Z,31.73
2023-04-15T07:56:10.958Z,31.70
2023-04-15T07:56:22.310Z,31.71
2023-04-15T07:56:33.907Z,31.69
2023-04-15T07:56:45.239Z,31.69
2023-04-15T07:56:56.830Z,31.70
2023-04-15T07:57:08.148Z,31.71
2023-04-15T07:57:19.753Z,31.70
2023-04-15T07:57:31.096Z,31.69
2023-04-15T07:57:42.669Z,31.67
2023-04-15T07:57:54.003Z,31.71
2023-04-15T07:58:05.599Z,31.70
2023-04-15T07:58:16.913Z,31.67
2023-04-15T07:58:28.509Z,31.71
2023-04-15T07:58:39.842Z,31.69
2023-04-15T07:58:51.440Z,31.69
2023-04-15T07:59:03.043Z,31.72
2023-04-15T07:59:14.699Z,31.70
2023-04-15T07:59:26.043Z,31.70
2023-04-15T07:59:37.636Z,31.70
2023-04-15T07:59:48.985Z,31.72
2023-04-15T08:00:00.566Z,31.69
2023-04-15T08:00:11.906Z,31.69
2023-04-15T08:00:23.501Z,31.70
2023-04-15T08:00:34.856Z,31.70
2023-04-15T08:00:46.442Z,31.69
2023-04-15T08:00:57.786Z,31.69
2023-04-15T08:01:09.377Z,31.72
2023-04-15T08:01:20.701Z,31.69
2023-04-15T08:01:32.300Z,31.68
2023-04-15T08:01:43.667Z,31.68
2023-04-15T08:01:55.300Z,31.70
2023-04-15T08:02:06.661Z,31.71
2023-04-15T08:02:18.312Z,31.70
2023-04-15T08:02:29.840Z,31.72
2023-04-15T08:02:41.714Z,31.69
2023-04-15T08:02:53.265Z,31.69
2023-04-15T08:03:05.017Z,31.69
2023-04-15T08:03:16.584Z,31.68
2023-04-15T08:03:28.324Z,31.69
2023-04-15T08:03:39.858Z,31.68
2023-04-15T08:03:51.608Z,31.68
2023-04-15T08:04:03.228Z,31.67
2023-04-15T08:04:14.954Z,31.67
2023-04-15T08:04:26.507Z,31.70
2023-04-15T08:04:38.372Z,31.69
2023-04-15T08:04:49.962Z,31.68
2023-04-15T08:05:01.697Z,31.69
2023-04-15T08:05:13.157Z,31.71
2023-04-15T08:05:24.892Z,31.68
2023-04-15T08:05:36.300Z,31.67
2023-04-15T08:05:47.915Z,31.68
2023-04-15T08:05:59.274Z,31.69
2023-04-15T08:06:10.859Z,31.69
2023-04-15T08:06:22.193Z,31.69
2023-04-15T08:06:33.768Z,31.66
2023-04-15T08:06:45.092Z,31.66
2023-04-15T08:06:56.679Z,31.67
2023-04-15T08:07:07.994Z,31.67
2023-04-15T08:07:19.624Z,31.67
2023-04-15T08:07:30.970Z,31.69
2023-04-15T08:07:42.557Z,31.66
2023-04-15T08:07:53.887Z,31.66
2023-04-15T08:08:05.470Z,31.67
2023-04-15T08:08:16.803Z,31.67
2023-04-15T08:08:28.426Z,31.64
2023-04-15T08:08:39.741Z,31.66
2023-04-15T08:08:51.316Z,31.65
2023-04-15T08:09:02.894Z,31.66
2023-04-15T08:09:14.536Z,31.68
2023-04-15T08:09:25.869Z,31.67
2023-04-15T08:09:37.452Z,31.66
2023-04-15T08:09:48.769Z,31.64
2023-04-15T08:10:00.380Z,31.65
2023-04-15T08:10:11.698Z,31.64
2023-04-15T08:10:23.276Z,31.66
2023-04-15T08:10:34.613Z,31.64
2023-04-15T08:10:46.201Z,31.65
2023-04-15T08:10:57.536Z,31.65
2023-04-15T08:11:09.148Z,31.66
2023-04-15T08:11:20.472Z,31.64
2023-04-15T08:11:32.045Z,31.63
2023-04-15T08:11:43.357Z,31.64
2023-04-15T08:11:54.976Z,31.65
2023-04-15T08:12:06.285Z,31.66
2023-04-15T08:12:17.897Z,31.63
2023-04-15T08:12:29.236Z,31.64
2023-04-15T08:12:40.854Z,31.64
2023-04-15T08:12:52.164Z,31.65
2023-04-15T08:13:03.757Z,31.62
2023-04-15T08:13:15.098Z,31.65
2023-04-15T08:13:26.681Z,31.63
2023-04-15T08:13:38.013Z,31.64
2023-04-15T08:13:49.601Z,31.64
2023-04-15T08:14:00.932Z,31.63
2023-04-15T08:14:12.512Z,31.64
2023-04-15T08:14:23.840Z,31.65
2023-04-15T08:14:35.439Z,31.61
2023-04-15T08:14:46.784Z,31.62
2023-04-15T08:14:58.391Z,31.64
2023-04-15T08:15:09.715Z,31.63
2023-04-15T08:15:21.297Z,31.62
2023-04-15T08:15:32.623Z,31.62
2023-04-15T08:15:44.234Z,31.62
2023-04-15T08:15:55.590Z,31.63
2023-04-15T08:16:07.208Z,31.63
2023-04-15T08:16:18.686Z,31.63
2023-04-15T08:16:30.447Z,31.62
2023-04-15T08:16:41.843Z,31.64
2023-04-15T08:16:53.440Z,31.63
2023-04-15T08:17:04.758Z,31.64
2023-04-15T08:17:16.339Z,31.62
2023-04-15T08:17:27.706Z,31.63
2023-04-15T08:17:39.319Z,31.63
2023-04-15T08:17:50.709Z,31.61
2023-04-15T08:18:02.283Z,31.61
2023-04-15T08:18:13.600Z,31.59
2023-04-15T08:18:25.217Z,31.61
2023-04-15T08:18:36.516Z,31.62
2023-04-15T08:18:48.100Z,31.63
2023-04-15T08:18:59.705Z,31.62
2023-04-15T08:19:11.426Z,31.61
2023-04-15T08:19:22.742Z,31.62
2023-04-15T08:19:34.343Z,31.61
2023-04-15T08:19:45.688Z,31.62
2023-04-15T08:19:57.308Z,31.61
2023-04-15T08:20:08.651Z,31.63
2023-04-15T08:20:20.286Z,31.62
2023-04-15T08:20:31.599Z,31.62
2023-04-15T08:20:43.164Z,31.61
2023-04-15T08:20:54.479Z,31.62
2023-04-15T08:21:06.050Z,31.62
2023-04-15T08:21:17.379Z,31.60
2023-04-15T08:21:29.002Z,31.59
2023-04-15T08:21:40.328Z,31.62
2023-04-15T08:21:51.918Z,31.61
2023-04-15T08:22:03.279Z,31.60
2023-04-15T08:22:17.720Z,31.60
2023-04-15T08:22:25.635Z,31.64
2023-04-15T08:22:36.956Z,31.62
2023-04-15T08:22:48.582Z,31.59
2023-04-15T08:22:59.925Z,31.59
2023-04-15T08:23:11.509Z,31.60
2023-04-15T08:23:22.839Z,31.61
2023-04-15T08:23:34.442Z,31.62
2023-04-15T08:23:45.777Z,31.60
2023-04-15T08:23:57.390Z,31.61
2023-04-15T08:24:08.729Z,31.59
2023-04-15T08:24:20.344Z,31.60
2023-04-15T08:24:31.674Z,31.58
2023-04-15T08:24:43.241Z,31.60
2023-04-15T08:24:54.566Z,31.59
2023-04-15T08:25:06.201Z,31.61
2023-04-15T08:25:17.514Z,31.58
2023-04-15T08:25:29.154Z,31.56
2023-04-15T08:25:40.484Z,31.58
2023-04-15T08:25:52.085Z,31.58
2023-04-15T08:26:03.753Z,31.61
2023-04-15T08:26:15.341Z,31.60
2023-04-15T08:26:26.669Z,31.58
2023-04-15T08:26:38.268Z,31.59
2023-04-15T08:26:49.594Z,31.61
2023-04-15T08:27:01.178Z,31.57
2023-04-15T08:27:11.698Z,31.56
2023-04-15T08:27:23.254Z,31.57
2023-04-15T08:27:34.576Z,31.59
2023-04-15T08:27:46.201Z,31.59
2023-04-15T08:27:57.561Z,31.55
2023-04-15T08:28:09.136Z,31.57
2023-04-15T08:28:20.475Z,31.57
2023-04-15T08:28:32.070Z,31.58
2023-04-15T08:28:43.385Z,31.55
2023-04-15T08:28:54.973Z,31.57
2023-04-15T08:29:06.299Z,31.55
2023-04-15T08:29:17.905Z,31.57
2023-04-15T08:29:29.220Z,31.55
2023-04-15T08:29:40.792Z,31.58
2023-04-15T08:29:52.108Z,31.57
2023-04-15T08:30:05.105Z,31.55
2023-04-15T08:30:14.497Z,31.53
2023-04-15T08:30:26.060Z,31.57
2023-04-15T08:30:37.391Z,31.56
2023-04-15T08:30:48.997Z,31.55
2023-04-15T08:31:00.327Z,31.55
2023-04-15T08:31:11.939Z,31.56
2023-04-15T08:31:23.350Z,31.53
2023-04-15T08:31:34.978Z,31.58
2023-04-15T08:31:46.344Z,31.56
2023-04-15T08:31:57.938Z,31.55
2023-04-15T08:32:09.254Z,31.56
2023-04-15T08:32:20.877Z,31.55
2023-04-15T08:32:32.260Z,31.57
2023-04-15T08:32:43.926Z,31.55
2023-04-15T08:32:55.332Z,31.56
2023-04-15T08:33:06.907Z,31.56
2023-04-15T08:33:18.237Z,31.55
2023-04-15T08:33:29.831Z,31.55
2023-04-15T08:33:41.156Z,31.56
2023-04-15T08:33:52.744Z,31.54
2023-04-15T08:34:04.086Z,31.55
2023-04-15T08:34:15.681Z,31.54
2023-04-15T08:34:27.012Z,31.55
2023-04-15T08:34:38.596Z,31.55
2023-04-15T08:34:49.903Z,31.56
2023-04-15T08:35:01.489Z,31.55
2023-04-15T08:35:12.829Z,31.55
2023-04-15T08:35:24.433Z,31.54
2023-04-15T08:35:35.731Z,31.53
2023-04-15T08:35:47.310Z,31.53
2023-04-15T08:35:58.636Z,31.55
2023-04-15T08:36:10.214Z,31.55
2023-04-15T08:36:21.548Z,31.55
2023-04-15T08:36:33.123Z,31.54
2023-04-15T08:36:44.464Z,31.54
2023-04-15T08:36:56.096Z,31.54
2023-04-15T08:37:07.399Z,31.56
2023-04-15T08:37:18.977Z,31.52
2023-04-15T08:37:30.312Z,31.53
2023-04-15T08:37:41.944Z,31.53
2023-04-15T08:37:53.295Z,31.52
2023-04-15T08:38:04.872Z,31.54
2023-04-15T08:38:16.228Z,31.53
2023-04-15T08:38:27.820Z,31.54
2023-04-15T08:38:39.172Z,31.55
2023-04-15T08:38:50.780Z,31.53
2023-04-15T08:39:02.389Z,31.55
2023-04-15T08:39:14.072Z,31.53
2023-04-15T08:39:25.392Z,31.55
2023-04-15T08:39:36.968Z,31.53
2023-04-15T08:39:48.322Z,31.55
2023-04-15T08:39:59.931Z,31.52
2023-04-15T08:40:11.286Z,31.53
2023-04-15T08:40:22.884Z,31.52
2023-04-15T08:40:34.229Z,31.52
2023-04-15T08:40:45.828Z,31.54
2023-04-15T08:40:57.179Z,31.55
2023-04-15T08:41:08.780Z,31.53
2023-04-15T08:41:20.139Z,31.53
2023-04-15T08:41:31.704Z,31.51
2023-04-15T08:41:43.051Z,31.54
2023-04-15T08:41:54.647Z,31.51
2023-04-15T08:42:05.960Z,31.50
2023-04-15T08:42:17.540Z,31.53
2023-04-15T08:42:28.867Z,31.52
2023-04-15T08:42:41.553Z,31.51
2023-04-15T08:42:52.071Z,31.53
2023-04-15T08:43:03.655Z,31.50
2023-04-15T08:43:14.985Z,31.53
2023-04-15T08:43:26.586Z,31.51
2023-04-15T08:43:37.891Z,31.52
2023-04-15T08:43:49.457Z,31.50
2023-04-15T08:44:00.791Z,31.51
2023-04-15T08:44:12.397Z,31.52
2023-04-15T08:44:23.731Z,31.50
2023-04-15T08:44:35.328Z,31.49
2023-04-15T08:44:46.671Z,31.53
2023-04-15T08:44:58.248Z,31.51
2023-04-15T08:45:09.577Z,31.49
2023-04-15T08:45:21.194Z,31.51
2023-04-15T08:45:32.539Z,31.50
2023-04-15T08:45:44.131Z,31.51
2023-04-15T08:45:55.453Z,31.50
2023-04-15T08:46:07.041Z,31.50
2023-04-15T08:46:18.382Z,31.48
2023-04-15T08:46:30.019Z,31.49
2023-04-15T08:46:41.399Z,31.50
2023-04-15T08:46:53.001Z,31.52
2023-04-15T08:47:04.431Z,31.49
2023-04-15T08:47:16.079Z,31.49
2023-04-15T08:47:27.488Z,31.52
2023-04-15T08:47:39.118Z,31.50
2023-04-15T08:47:50.465Z,31.51
2023-04-15T08:48:02.146Z,31.49
2023-04-15T08:48:13.480Z,31.52
2023-04-15T08:48:25.074Z,31.50
2023-04-15T08:48:36.391Z,31.51
2023-04-15T08:48:47.982Z,31.50
2023-04-15T08:48:59.366Z,31.49
2023-04-15T08:49:10.947Z,31.51
2023-04-15T08:49:22.288Z,31.50
2023-04-15T08:49:33.877Z,31.50
2023-04-15T08:49:45.215Z,31.51
2023-04-15T08:49:56.827Z,31.49
2023-04-15T08:50:08.128Z,31.51
2023-04-15T08:50:19.712Z,31.50
2023-04-15T08:50:31.088Z,31.50
2023-04-15T08:50:42.652Z,31.49
2023-04-15T08:50:53.963Z,31.49
2023-04-15T08:51:05.587Z,31.49
2023-04-15T08:51:16.913Z,31.50
2023-04-15T08:51:28.509Z,31.49
2023-04-15T08:51:39.849Z,31.49
2023-04-15T08:51:51.435Z,31.49
2023-04-15T08:52:02.754Z,31.50
2023-04-15T08:52:14.353Z,31.48
2023-04-15T08:52:25.663Z,31.49
2023-04-15T08:52:37.270Z,31.47
2023-04-15T08:52:48.621Z,31.49
2023-04-15T08:53:00.252Z,31.48
2023-04-15T08:53:11.584Z,31.48
2023-04-15T08:53:23.172Z,31.48
2023-04-15T08:53:34.553Z,31.50
2023-04-15T08:53:46.099Z,31.47
2023-04-15T08:53:57.460Z,31.47
2023-04-15T08:54:09.037Z,31.48
2023-04-15T08:54:20.369Z,31.48
2023-04-15T08:54:31.986Z,31.48
2023-04-15T08:54:43.306Z,31.49
2023-04-15T08:54:54.888Z,31.50
2023-04-15T08:55:06.222Z,31.49
2023-04-15T08:55:17.823Z,31.48
2023-04-15T08:55:29.136Z,31.48
2023-04-15T08:55:40.724Z,31.49
2023-04-15T08:55:52.066Z,31.48
2023-04-15T08:56:03.672Z,31.48
2023-04-15T08:56:14.988Z,31.47
2023-04-15T08:56:26.594Z,31.47
2023-04-15T08:56:37.931Z,31.48
2023-04-15T08:56:49.577Z,31.47
2023-04-15T08:57:00.874Z,31.48
2023-04-15T08:57:12.447Z,31.49
2023-04-15T08:57:23.797Z,31.49
2023-04-15T08:57:35.489Z,31.47
2023-04-15T08:57:46.866Z,31.46
2023-04-15T08:57:58.449Z,31.49
2023-04-15T08:58:09.800Z,31.48
2023-04-15T08:58:21.409Z,31.47
2023-04-15T08:58:32.709Z,31.48
2023-04-15T08:58:44.286Z,31.47
2023-04-15T08:58:55.728Z,31.47
2023-04-15T08:59:07.296Z,31.48
2023-04-15T08:59:18.615Z,31.47
2023-04-15T08:59:30.220Z,31.47
2023-04-15T08:59:41.539Z,31.48
2023-04-15T08:59:53.121Z,31.47
2023-04-15T09:00:05.534Z,31.47
2023-04-15T09:00:15.114Z,31.51
2023-04-15T09:00:26.699Z,31.49
2023-04-15T09:00:38.051Z,31.48
2023-04-15T09:00:49.656Z,31.47
2023-04-15T09:01:00.986Z,31.49
2023-04-15T09:01:12.582Z,31.46
2023-04-15T09:01:23.959Z,31.47
2023-04-15T09:01:35.659Z,31.47
2023-04-15T09:01:47.057Z,31.47
2023-04-15T09:01:58.738Z,31.46
2023-04-15T09:02:10.116Z,31.47
2023-04-15T09:02:21.774Z,31.48
2023-04-15T09:02:33.190Z,31.48
2023-04-15T09:02:44.909Z,31.47
2023-04-15T09:02:56.400Z,31.50
2023-04-15T09:03:08.093Z,31.47
2023-04-15T09:03:19.518Z,31.49
2023-04-15T09:03:31.235Z,31.47
2023-04-15T09:03:42.742Z,31.46
2023-04-15T09:03:54.852Z,31.47
2023-04-15T09:04:06.685Z,31.43
2023-04-15T09:04:18.117Z,31.46
2023-04-15T09:04:29.731Z,31.46
2023-04-15T09:04:41.076Z,31.47
2023-04-15T09:04:52.664Z,31.47
2023-04-15T09:05:04.002Z,31.47
2023-04-15T09:05:15.604Z,31.45
2023-04-15T09:05:26.981Z,31.45
2023-04-15T09:05:38.597Z,31.45
2023-04-15T09:05:51.411Z,31.47
2023-04-15T09:06:01.900Z,31.54
2023-04-15T09:06:13.481Z,31.47
2023-04-15T09:06:24.810Z,31.47
2023-04-15T09:06:36.419Z,31.46
2023-04-15T09:06:47.768Z,31.47
2023-04-15T09:06:59.388Z,31.44
2023-04-15T09:07:10.728Z,31.46
2023-04-15T09:07:22.324Z,31.45
2023-04-15T09:07:33.673Z,31.47
2023-04-15T09:07:45.291Z,31.46
2023-04-15T09:07:56.619Z,31.46
2023-04-15T09:08:08.218Z,31.45
2023-04-15T09:08:19.543Z,31.47
2023-04-15T09:08:31.132Z,31.46
2023-04-15T09:08:42.487Z,31.45
2023-04-15T09:08:54.215Z,31.46
2023-04-15T09:09:05.562Z,31.45
2023-04-15T09:09:17.160Z,31.44
2023-04-15T09:09:28.511Z,31.45
2023-04-15T09:09:40.098Z,31.45
2023-04-15T09:09:51.424Z,31.46
2023-04-15T09:10:03.029Z,31.45
2023-04-15T09:10:14.366Z,31.46
2023-04-15T09:10:25.973Z,31.43
2023-04-15T09:10:37.278Z,31.46
2023-04-15T09:10:48.860Z,31.44
2023-04-15T09:11:00.219Z,31.43
2023-04-15T09:11:11.793Z,31.46
2023-04-15T09:11:23.131Z,31.44
2023-04-15T09:11:34.730Z,31.44
2023-04-15T09:11:46.051Z,31.44
2023-04-15T09:11:57.639Z,31.44
2023-04-15T09:12:08.972Z,31.43
2023-04-15T09:12:20.561Z,31.43
2023-04-15T09:12:31.887Z,31.44
2023-04-15T09:12:43.456Z,31.43
2023-04-15T09:12:54.813Z,31.43
2023-04-15T09:13:06.428Z,31.42
2023-04-15T09:13:17.747Z,31.41
2023-04-15T09:13:29.340Z,31.45
2023-04-15T09:13:40.656Z,31.43
2023-04-15T09:13:52.233Z,31.41
2023-04-15T09:14:03.579Z,31.44
2023-04-15T09:14:15.187Z,31.43
2023-04-15T09:14:26.541Z,31.43
2023-04-15T09:14:38.147Z,31.43
2023-04-15T09:14:49.504Z,31.46
2023-04-15T09:15:01.064Z,31.43
2023-04-15T09:15:12.420Z,31.44
2023-04-15T09:15:24.010Z,31.44
2023-04-15T09:15:35.355Z,31.43
2023-04-15T09:15:46.942Z,31.44
2023-04-15T09:15:58.322Z,31.44
2023-04-15T09:16:09.950Z,31.42
2023-04-15T09:16:21.317Z,31.45
2023-04-15T09:16:32.975Z,31.44
2023-04-15T09:16:44.296Z,31.42
2023-04-15T09:16:55.908Z,31.43
2023-04-15T09:17:07.321Z,31.44
2023-04-15T09:17:18.965Z,31.43
2023-04-15T09:17:30.291Z,31.45
2023-04-15T09:17:41.960Z,31.44
2023-04-15T09:17:53.301Z,31.41
2023-04-15T09:18:04.878Z,31.42
2023-04-15T09:18:16.235Z,31.44
2023-04-15T09:18:27.846Z,31.44
2023-04-15T09:18:39.176Z,31.43
2023-04-15T09:18:50.763Z,31.43
2023-04-15T09:19:02.299Z,31.42
2023-04-15T09:19:13.998Z,31.44
2023-04-15T09:19:25.354Z,31.42
2023-04-15T09:19:36.951Z,31.44
2023-04-15T09:19:48.274Z,31.43
2023-04-15T09:19:59.879Z,31.43
2023-04-15T09:20:11.229Z,31.44
2023-04-15T09:20:22.818Z,31.42
2023-04-15T09:20:34.157Z,31.42
2023-04-15T09:20:45.776Z,31.42
2023-04-15T09:20:57.083Z,31.43
2023-04-15T09:21:08.775Z,31.44
2023-04-15T09:21:20.095Z,31.43
2023-04-15T09:21:31.678Z,31.44
2023-04-15T09:21:43.009Z,31.45
2023-04-15T09:21:56.568Z,31.44
2023-04-15T09:22:05.115Z,31.46
2023-04-15T09:22:16.456Z,31.46
2023-04-15T09:22:28.121Z,31.42
2023-04-15T09:22:39.436Z,31.42
2023-04-15T09:22:51.007Z,31.43
2023-04-15T09:23:02.335Z,31.41
2023-04-15T09:23:13.921Z,31.44
2023-04-15T09:23:25.261Z,31.43
2023-04-15T09:23:36.855Z,31.42
2023-04-15T09:23:48.169Z,31.42
2023-04-15T09:24:00.029Z,31.41
2023-04-15T09:24:11.454Z,31.43
2023-04-15T09:24:23.018Z,31.43
2023-04-15T09:24:34.382Z,31.42
2023-04-15T09:24:45.970Z,31.42
2023-04-15T09:24:57.302Z,31.43
2023-04-15T09:25:08.905Z,31.43
2023-04-15T09:25:20.229Z,31.42
2023-04-15T09:25:34.768Z,31.42
2023-04-15T09:25:42.139Z,31.45
2023-04-15T09:25:53.483Z,31.44
2023-04-15T09:26:05.099Z,31.44
2023-04-15T09:26:16.451Z,31.43
2023-04-15T09:26:28.053Z,31.42
2023-04-15T09:26:39.400Z,31.42
2023-04-15T09:26:50.999Z,31.44
2023-04-15T09:27:02.340Z,31.43
2023-04-15T09:27:13.922Z,31.44
2023-04-15T09:27:25.271Z,31.43
2023-04-15T09:27:36.848Z,31.43
2023-04-15T09:27:48.169Z,31.41
2023-04-15T09:27:59.761Z,31.41
2023-04-15T09:28:11.097Z,31.45
2023-04-15T09:28:22.713Z,31.42
2023-04-15T09:28:34.041Z,31.42
2023-04-15T09:28:45.645Z,31.42
2023-04-15T09:28:57.002Z,31.41
2023-04-15T09:29:08.582Z,31.43
2023-04-15T09:29:19.905Z,31.42
2023-04-15T09:29:31.484Z,31.42
2023-04-15T09:29:42.833Z,31.43
2023-04-15T09:29:54.417Z,31.41
2023-04-15T09:30:05.751Z,31.43
2023-04-15T09:30:17.406Z,31.40
2023-04-15T09:30:28.728Z,31.43
2023-04-15T09:30:40.346Z,31.41
2023-04-15T09:30:51.862Z,31.40
2023-04-15T09:31:03.572Z,31.41
2023-04-15T09:31:14.892Z,31.42
2023-04-15T09:31:26.509Z,31.41
2023-04-15T09:31:37.893Z,31.42
2023-04-15T09:31:49.472Z,31.42
2023-04-15T09:32:00.797Z,31.42
2023-04-15T09:32:12.382Z,31.42
2023-04-15T09:32:23.769Z,31.39
2023-04-15T09:32:35.342Z,31.38
2023-04-15T09:32:46.707Z,31.42
2023-04-15T09:32:58.375Z,31.40
2023-04-15T09:33:09.685Z,31.41
2023-04-15T09:33:21.276Z,31.41
2023-04-15T09:33:32.602Z,31.40
2023-04-15T09:33:44.210Z,31.40
2023-04-15T09:33:55.545Z,31.40
2023-04-15T09:34:07.149Z,31.40
2023-04-15T09:34:18.468Z,31.42
2023-04-15T09:34:30.068Z,31.41
2023-04-15T09:34:41.414Z,31.42
2023-04-15T09:34:53.010Z,31.41
2023-04-15T09:35:04.333Z,31.42
2023-04-15T09:35:15.909Z,31.40
2023-04-15T09:35:27.230Z,31.42
2023-04-15T09:35:38.841Z,31.40
2023-04-15T09:35:50.208Z,31.42
2023-04-15T09:36:01.785Z,31.39
2023-04-15T09:36:13.097Z,31.41
2023-04-15T09:36:24.705Z,31.41
2023-04-15T09:36:36.077Z,31.40
2023-04-15T09:36:49.704Z,31.41
2023-04-15T09:36:57.953Z,31.44
2023-04-15T09:37:09.272Z,31.43
2023-04-15T09:37:31.563Z,31.41
2023-04-15T09:37:32.824Z,31.49
2023-04-15T09:37:44.154Z,31.45
2023-04-15T09:37:55.753Z,31.43
2023-04-15T09:38:07.082Z,31.42
2023-04-15T09:38:18.673Z,31.42
2023-04-15T09:38:30.039Z,31.42
2023-04-15T09:38:41.610Z,31.42
2023-04-15T09:38:53.010Z,31.42
2023-04-15T09:39:04.568Z,31.40
2023-04-15T09:39:15.910Z,31.42
2023-04-15T09:39:27.490Z,31.42
2023-04-15T09:39:38.826Z,31.43
2023-04-15T09:39:50.418Z,31.40
2023-04-15T09:40:01.801Z,31.41
2023-04-15T09:40:13.363Z,31.43
2023-04-15T09:40:24.700Z,31.41
2023-04-15T09:40:36.334Z,31.41
2023-04-15T09:40:47.678Z,31.40
2023-04-15T09:40:59.268Z,31.42
2023-04-15T09:41:10.603Z,31.38
2023-04-15T09:41:22.164Z,31.41
2023-04-15T09:41:33.512Z,31.41
2023-04-15T09:41:45.156Z,31.43
2023-04-15T09:41:56.492Z,31.41
2023-04-15T09:42:08.324Z,31.40
2023-04-15T09:42:19.704Z,31.42
2023-04-15T09:42:31.290Z,31.39
2023-04-15T09:42:42.632Z,31.43
2023-04-15T09:42:54.210Z,31.42
2023-04-15T09:43:05.554Z,31.41
2023-04-15T09:43:17.193Z,31.39
2023-04-15T09:43:28.515Z,31.40
2023-04-15T09:43:40.137Z,31.41
2023-04-15T09:43:51.432Z,31.40
2023-04-15T09:44:03.102Z,31.42
2023-04-15T09:44:14.463Z,31.41
2023-04-15T09:44:26.047Z,31.41
2023-04-15T09:44:37.376Z,31.42
2023-04-15T09:44:49.006Z,31.40
2023-04-15T09:45:00.330Z,31.38
2023-04-15T09:45:11.916Z,31.41
2023-04-15T09:45:23.756Z,31.43
2023-04-15T09:45:34.780Z,31.47
2023-04-15T09:45:46.403Z,31.41
2023-04-15T09:45:57.733Z,31.43
2023-04-15T09:46:09.384Z,31.41
2023-04-15T09:46:20.715Z,31.41
2023-04-15T09:46:32.342Z,31.42
2023-04-15T09:46:43.760Z,31.42
2023-04-15T09:46:55.309Z,31.42
2023-04-15T09:47:06.660Z,31.41
2023-04-15T09:47:18.254Z,31.41
2023-04-15T09:47:29.639Z,31.42
2023-04-15T09:47:41.265Z,31.40
2023-04-15T09:47:52.636Z,31.42
2023-04-15T09:48:04.231Z,31.39
2023-04-15T09:48:15.526Z,31.41
2023-04-15T09:48:27.149Z,31.42
2023-04-15T09:48:38.477Z,31.40
2023-04-15T09:48:50.073Z,31.41
2023-04-15T09:49:01.392Z,31.41
2023-04-15T09:49:13.049Z,31.40
2023-04-15T09:49:24.430Z,31.42
2023-04-15T09:49:36.098Z,31.42
2023-04-15T09:49:47.469Z,31.42
2023-04-15T09:49:59.121Z,31.43
2023-04-15T09:50:10.504Z,31.41
2023-04-15T09:50:22.092Z,31.40
2023-04-15T09:50:33.428Z,31.41
2023-04-15T09:50:45.064Z,31.39
2023-04-15T09:50:56.413Z,31.41
2023-04-15T09:51:07.976Z,31.41
2023-04-15T09:51:19.324Z,31.41
2023-04-15T09:51:30.913Z,31.39
2023-04-15T09:51:46.570Z,31.40
2023-04-15T09:52:04.544Z,31.52
2023-04-15T09:52:06.764Z,31.53
2023-04-15T09:52:18.444Z,31.43
2023-04-15T09:52:29.793Z,31.42
2023-04-15T09:52:41.406Z,31.41
2023-04-15T09:52:52.724Z,31.42
2023-04-15T09:53:04.312Z,31.41
2023-04-15T09:53:15.636Z,31.40
2023-04-15T09:53:27.787Z,31.40
2023-04-15T09:53:38.011Z,31.39
2023-04-15T09:53:49.595Z,31.40
2023-04-15T09:54:01.226Z,31.41
2023-04-15T09:54:12.888Z,31.40
2023-04-15T09:54:24.214Z,31.41
2023-04-15T09:54:35.797Z,31.39
2023-04-15T09:54:47.125Z,31.40
2023-04-15T09:54:58.721Z,31.39
2023-04-15T09:55:10.060Z,31.39
2023-04-15T09:55:21.639Z,31.40
2023-04-15T09:55:32.954Z,31.40
2023-04-15T09:55:44.532Z,31.39
2023-04-15T09:55:55.848Z,31.41
2023-04-15T09:56:07.451Z,31.37
2023-04-15T09:56:18.771Z,31.38
2023-04-15T09:56:30.353Z,31.39
2023-04-15T09:56:41.701Z,31.39
2023-04-15T09:56:53.289Z,31.39
2023-04-15T09:57:04.637Z,31.40
2023-04-15T09:57:16.231Z,31.39
2023-04-15T09:57:27.556Z,31.42
2023-04-15T09:57:39.135Z,31.37
2023-04-15T09:57:50.511Z,31.40
2023-04-15T09:58:02.077Z,31.39
2023-04-15T09:58:13.426Z,31.39
2023-04-15T09:58:25.050Z,31.40
2023-04-15T09:58:36.407Z,31.40
2023-04-15T09:58:48.006Z,31.37
2023-04-15T09:58:59.343Z,31.39
2023-04-15T09:59:10.944Z,31.39
2023-04-15T09:59:22.262Z,31.36
2023-04-15T09:59:33.853Z,31.38
2023-04-15T09:59:45.186Z,31.37
2023-04-15T09:59:56.771Z,31.39
2023-04-15T10:00:08.114Z,31.38
2023-04-15T10:00:19.723Z,31.38
2023-04-15T10:00:31.045Z,31.42
2023-04-15T10:00:42.630Z,31.39
2023-04-15T10:00:53.966Z,31.37
2023-04-15T10:01:05.619Z,31.38
2023-04-15T10:01:17.011Z,31.37
2023-04-15T10:01:28.594Z,31.39
2023-04-15T10:01:39.951Z,31.39
2023-04-15T10:01:51.707Z,31.40
2023-04-15T10:02:03.252Z,31.40
2023-04-15T10:02:14.971Z,31.39
2023-04-15T10:02:26.398Z,31.39
2023-04-15T10:02:38.106Z,31.40